РПИ Сыктывкар

РПИ Сыктывкар

РПИ Сыктывкар является структурным подразделением VATRUS.

В зону ответственности Сыктывкарского центра в сети VATSIM входит воздушное пространство над территориями Республики Коми, а так же частью Ненецкого АО.

Руководитель РПИ

Alexey Kaznakov*

Инструкторы РПИ
Входит в состав
ЗЦ Санкт-Петербург

Диспетчеры РПИ

Диспетчер Рейтинг Допуски *
Alexey Zimin Instructor UUYY_CTR
Nikita Assorov Instructor UUYY_CTR

Аэропорты РПИ

ICAO Город Название Погода
UUYY Сыктывкар Сыктывкар UUYY 161730Z 27002MPS 240V310 9999 OVC009 M09/M11 Q0992 R36/490533 NOSIG RMK QFE735/0980